createdAt,value
2017-04-16T00:00:10.642Z,94.7
2017-04-16T00:01:10.920Z,94.7
2017-04-16T00:02:10.896Z,94.42
2017-04-16T00:03:10.874Z,95.08
2017-04-16T00:04:10.855Z,94.79
2017-04-16T00:05:10.523Z,94.98
2017-04-16T00:06:10.814Z,94.79
2017-04-16T00:07:10.794Z,94.79
2017-04-16T00:08:10.471Z,94.98
2017-04-16T00:09:10.743Z,95.17
2017-04-16T00:10:10.419Z,95.08
2017-04-16T00:11:10.705Z,95.36
2017-04-16T00:12:10.683Z,95.65
2017-04-16T00:13:10.664Z,95.46
2017-04-16T00:14:10.643Z,95.46
2017-04-16T00:15:10.612Z,95.36
2017-04-16T00:16:10.296Z,95.46
2017-04-16T00:17:10.263Z,95.17
2017-04-16T00:18:10.246Z,94.7
2017-04-16T00:19:10.223Z,94.65
2017-04-16T00:20:10.510Z,95.17
2017-04-16T00:21:10.172Z,95.36
2017-04-16T00:22:10.463Z,96.03
2017-04-16T00:23:10.455Z,95.94
2017-04-16T00:24:10.113Z,95.46
2017-04-16T00:25:10.094Z,95.41
2017-04-16T00:26:10.063Z,95.46
2017-04-16T00:27:10.043Z,95.51
2017-04-16T00:28:10.331Z,95.17
2017-04-16T00:29:10.006Z,95.27
2017-04-16T00:30:09.979Z,95.22
2017-04-16T00:31:10.261Z,95.32
2017-04-16T00:32:09.946Z,95.36
2017-04-16T00:33:10.224Z,95.75
2017-04-16T00:34:09.902Z,96.03
2017-04-16T00:35:10.183Z,95.84
2017-04-16T00:36:09.856Z,96.12
2017-04-16T00:37:10.129Z,95.98
2017-04-16T00:38:10.113Z,95.98
2017-04-16T00:39:10.092Z,96.08
2017-04-16T00:40:09.773Z,96.22
2017-04-16T00:41:10.043Z,96.31
2017-04-16T00:42:10.024Z,96.22
2017-04-16T00:43:10.005Z,96.7
2017-04-16T00:44:09.980Z,96.7
2017-04-16T00:45:09.965Z,96.41
2017-04-16T00:46:09.944Z,96.89
2017-04-16T00:47:09.914Z,97.08
2017-04-16T00:48:09.896Z,97.36
2017-04-16T00:49:09.874Z,97.17
2017-04-16T00:50:09.941Z,97.36
2017-04-16T00:51:09.826Z,97.65
2017-04-16T00:52:09.805Z,97.55
2017-04-16T00:53:09.790Z,97.17
2017-04-16T00:54:09.764Z,97.46
2017-04-16T00:55:09.747Z,97.17
2017-04-16T00:56:09.795Z,97.36
2017-04-16T00:57:09.702Z,97.36
2017-04-16T00:58:09.739Z,97.08
2017-04-16T00:59:09.350Z,97.55
2017-04-16T01:00:09.634Z,97.55
2017-04-16T01:01:09.602Z,97.46
2017-04-16T01:02:09.284Z,97.65
2017-04-16T01:03:09.563Z,97.36
2017-04-16T01:04:09.553Z,97.65
2017-04-16T01:05:09.532Z,97.46
2017-04-16T01:06:09.514Z,97.65
2017-04-16T01:07:09.177Z,97.36
2017-04-16T01:08:09.464Z,97.74
2017-04-16T01:09:09.443Z,97.36
2017-04-16T01:10:09.116Z,97.17
2017-04-16T01:11:09.084Z,97.74
2017-04-16T01:12:09.366Z,97.93
2017-04-16T01:13:09.347Z,97.65
2017-04-16T01:14:09.324Z,97.93
2017-04-16T01:15:08.994Z,98.32
2017-04-16T01:16:09.284Z,98.22
2017-04-16T01:17:09.254Z,98.41
2017-04-16T01:18:08.925Z,98.41
2017-04-16T01:19:09.218Z,98.79
2017-04-16T01:20:09.309Z,98.5
2017-04-16T01:21:09.172Z,98.5
2017-04-16T01:22:09.153Z,98.69
2017-04-16T01:23:09.127Z,98.6
2017-04-16T01:24:09.104Z,98.88
2017-04-16T01:25:09.081Z,99.08
2017-04-16T01:26:08.752Z,98.88
2017-04-16T01:27:08.734Z,98.88
2017-04-16T01:28:08.704Z,98.69
2017-04-16T01:29:08.991Z,98.6
2017-04-16T01:30:08.972Z,98.6
2017-04-16T01:31:08.643Z,98.41
2017-04-16T01:32:08.924Z,98.98
2017-04-16T01:33:08.608Z,99.46
2017-04-16T01:34:08.885Z,99.46
2017-04-16T01:35:08.713Z,98.98
2017-04-16T01:36:08.845Z,99.36
2017-04-16T01:37:08.523Z,99.74
2017-04-16T01:38:08.814Z,99.46
2017-04-16T01:39:08.853Z,99.84
2017-04-16T01:40:08.764Z,99.65
2017-04-16T01:41:08.444Z,99.74
2017-04-16T01:42:08.711Z,99.93
2017-04-16T01:43:08.694Z,99.74
2017-04-16T01:44:08.676Z,99.99
2017-04-16T01:45:08.706Z,99.99
2017-04-16T01:46:08.622Z,99.99
2017-04-16T01:47:08.665Z,99.74
2017-04-16T01:48:08.583Z,99.99
2017-04-16T01:49:08.356Z,99.99
2017-04-16T01:50:08.534Z,99.99
2017-04-16T01:51:08.551Z,99.99
2017-04-16T01:52:08.503Z,99.99
2017-04-16T01:53:08.264Z,99.99
2017-04-16T01:54:08.155Z,99.99
2017-04-16T01:55:08.502Z,99.99
2017-04-16T01:56:08.443Z,99.46
2017-04-16T01:57:08.193Z,99.55
2017-04-16T01:58:08.433Z,99.99
2017-04-16T01:59:08.033Z,99.74
2017-04-16T02:00:08.420Z,99.84
2017-04-16T02:01:08.283Z,99.93
2017-04-16T02:02:07.953Z,99.99
2017-04-16T02:03:08.365Z,99.99
2017-04-16T02:04:07.923Z,99.99
2017-04-16T02:05:08.199Z,99.99
2017-04-16T02:06:07.873Z,99.99
2017-04-16T02:07:08.014Z,99.99
2017-04-16T02:08:07.836Z,99.99
2017-04-16T02:09:08.125Z,99.99
2017-04-16T02:10:08.094Z,99.99
2017-04-16T02:11:07.893Z,99.99
2017-04-16T02:12:08.063Z,99.99
2017-04-16T02:13:08.028Z,99.99
2017-04-16T02:14:07.704Z,99.99
2017-04-16T02:15:07.977Z,99.99
2017-04-16T02:16:07.954Z,99.99
2017-04-16T02:17:07.633Z,99.99
2017-04-16T02:18:07.914Z,99.99
2017-04-16T02:19:07.884Z,99.99
2017-04-16T02:20:07.864Z,99.99
2017-04-16T02:21:07.843Z,99.99
2017-04-16T02:22:07.515Z,99.99
2017-04-16T02:23:07.814Z,99.99
2017-04-16T02:24:07.784Z,99.99
2017-04-16T02:25:07.694Z,99.99
2017-04-16T02:26:07.431Z,99.99
2017-04-16T02:27:07.406Z,99.99
2017-04-16T02:28:07.383Z,99.99
2017-04-16T02:29:07.673Z,99.99
2017-04-16T02:30:07.644Z,99.99
2017-04-16T02:31:07.624Z,99.99
2017-04-16T02:32:07.601Z,99.99
2017-04-16T02:33:07.576Z,99.99
2017-04-16T02:34:07.563Z,99.99
2017-04-16T02:35:07.538Z,99.99
2017-04-16T02:36:07.505Z,99.99
2017-04-16T02:37:07.494Z,99.99
2017-04-16T02:38:07.474Z,99.99
2017-04-16T02:39:07.445Z,99.99
2017-04-16T02:40:07.423Z,99.99
2017-04-16T02:41:07.394Z,99.99
2017-04-16T02:42:07.374Z,99.99
2017-04-16T02:43:07.356Z,99.99
2017-04-16T02:44:07.336Z,99.99
2017-04-16T02:45:07.305Z,99.99
2017-04-16T02:46:07.282Z,99.99
2017-04-16T02:47:07.266Z,99.99
2017-04-16T02:48:06.939Z,99.99
2017-04-16T02:49:07.225Z,99.99
2017-04-16T02:50:06.897Z,99.99
2017-04-16T02:51:06.863Z,99.99
2017-04-16T02:52:06.844Z,99.99
2017-04-16T02:53:06.818Z,99.99
2017-04-16T02:54:07.103Z,99.99
2017-04-16T02:55:06.776Z,99.99
2017-04-16T02:56:07.066Z,99.99
2017-04-16T02:57:07.033Z,99.99
2017-04-16T02:58:07.023Z,99.99
2017-04-16T02:59:06.692Z,99.99
2017-04-16T03:00:07.073Z,99.99
2017-04-16T03:01:06.953Z,99.99
2017-04-16T03:02:06.949Z,99.99
2017-04-16T03:03:06.904Z,99.99
2017-04-16T03:04:06.895Z,99.99
2017-04-16T03:05:06.965Z,99.99
2017-04-16T03:06:06.833Z,99.99
2017-04-16T03:07:06.807Z,99.99
2017-04-16T03:08:06.479Z,99.99
2017-04-16T03:09:06.774Z,99.99
2017-04-16T03:10:06.743Z,99.99
2017-04-16T03:11:06.738Z,99.99
2017-04-16T03:12:06.394Z,99.99
2017-04-16T03:13:06.373Z,99.99
2017-04-16T03:14:06.656Z,99.99
2017-04-16T03:15:06.730Z,99.99
2017-04-16T03:16:06.600Z,99.99
2017-04-16T03:17:06.274Z,99.99
2017-04-16T03:18:06.560Z,99.99
2017-04-16T03:19:06.233Z,99.99
2017-04-16T03:20:06.513Z,99.99
2017-04-16T03:21:06.183Z,99.99
2017-04-16T03:22:06.474Z,99.99
2017-04-16T03:23:06.463Z,99.99
2017-04-16T03:24:06.430Z,99.99
2017-04-16T03:25:06.472Z,99.99
2017-04-16T03:26:06.382Z,99.99
2017-04-16T03:27:06.381Z,99.99
2017-04-16T03:28:06.344Z,99.99
2017-04-16T03:29:06.314Z,99.99
2017-04-16T03:30:06.352Z,99.99
2017-04-16T03:31:06.263Z,99.99
2017-04-16T03:32:06.293Z,99.99
2017-04-16T03:33:06.278Z,99.99
2017-04-16T03:34:05.903Z,99.99
2017-04-16T03:35:06.183Z,99.99
2017-04-16T03:36:06.153Z,99.99
2017-04-16T03:37:05.823Z,99.99
2017-04-16T03:38:05.803Z,99.99
2017-04-16T03:39:06.103Z,99.99
2017-04-16T03:40:06.072Z,99.99
2017-04-16T03:41:06.052Z,99.99
2017-04-16T03:42:06.016Z,99.99
2017-04-16T03:43:06.004Z,99.99
2017-04-16T03:44:06.124Z,99.99
2017-04-16T03:45:05.953Z,99.99
2017-04-16T03:46:05.627Z,99.99
2017-04-16T03:47:05.602Z,99.99
2017-04-16T03:48:05.882Z,99.99
2017-04-16T03:49:05.873Z,99.99
2017-04-16T03:50:05.833Z,99.99
2017-04-16T03:51:05.853Z,99.99
2017-04-16T03:52:05.800Z,99.99
2017-04-16T03:53:05.784Z,99.99
2017-04-16T03:54:05.443Z,99.99
2017-04-16T03:55:05.832Z,99.99
2017-04-16T03:56:05.393Z,99.99
2017-04-16T03:57:05.683Z,99.99
2017-04-16T03:58:05.662Z,99.99
2017-04-16T03:59:05.696Z,99.99
2017-04-16T04:00:05.405Z,99.99
2017-04-16T04:01:05.283Z,99.99
2017-04-16T04:02:05.563Z,99.99
2017-04-16T04:03:05.543Z,99.99
2017-04-16T04:04:05.523Z,99.99
2017-04-16T04:05:05.497Z,99.99
2017-04-16T04:06:05.483Z,99.99
2017-04-16T04:07:05.158Z,99.99
2017-04-16T04:08:05.133Z,99.99
2017-04-16T04:09:05.111Z,99.99
2017-04-16T04:10:05.382Z,99.99
2017-04-16T04:11:05.352Z,99.99
2017-04-16T04:12:05.344Z,99.99
2017-04-16T04:13:05.014Z,99.99
2017-04-16T04:14:05.291Z,99.99
2017-04-16T04:15:05.307Z,99.99
2017-04-16T04:16:05.245Z,99.99
2017-04-16T04:17:05.231Z,99.99
2017-04-16T04:18:05.204Z,99.99
2017-04-16T04:19:05.183Z,99.99
2017-04-16T04:20:04.884Z,99.99
2017-04-16T04:21:05.140Z,99.99
2017-04-16T04:22:04.806Z,99.99
2017-04-16T04:23:05.094Z,99.99
2017-04-16T04:24:05.082Z,99.99
2017-04-16T04:25:04.732Z,99.99
2017-04-16T04:26:05.053Z,99.99
2017-04-16T04:27:05.002Z,99.99
2017-04-16T04:28:05.081Z,99.99
2017-04-16T04:29:04.964Z,99.99
2017-04-16T04:30:05.043Z,99.99
2017-04-16T04:31:04.913Z,99.99
2017-04-16T04:32:04.895Z,99.99
2017-04-16T04:33:04.562Z,99.99
2017-04-16T04:34:04.533Z,99.99
2017-04-16T04:35:04.833Z,99.99
2017-04-16T04:36:04.832Z,99.99
2017-04-16T04:37:04.772Z,99.99
2017-04-16T04:38:04.471Z,99.99
2017-04-16T04:39:04.422Z,99.99
2017-04-16T04:40:04.701Z,99.99
2017-04-16T04:41:04.692Z,99.99
2017-04-16T04:42:04.662Z,99.99
2017-04-16T04:43:04.638Z,99.99
2017-04-16T04:44:04.614Z,99.99
2017-04-16T04:45:04.593Z,99.99
2017-04-16T04:46:04.573Z,99.99
2017-04-16T04:47:04.543Z,99.99
2017-04-16T04:48:04.522Z,99.99
2017-04-16T04:49:04.503Z,99.99
2017-04-16T04:50:04.481Z,99.99
2017-04-16T04:51:04.453Z,99.99
2017-04-16T04:52:04.461Z,99.99
2017-04-16T04:53:04.405Z,99.99
2017-04-16T04:54:04.185Z,99.99
2017-04-16T04:55:04.062Z,99.99
2017-04-16T04:56:04.034Z,99.99
2017-04-16T04:57:04.325Z,99.99
2017-04-16T04:58:04.043Z,99.99
2017-04-16T04:59:04.280Z,99.99
2017-04-16T05:00:03.956Z,99.99
2017-04-16T05:01:03.922Z,99.99
2017-04-16T05:02:03.904Z,99.99
2017-04-16T05:03:04.182Z,99.99
2017-04-16T05:04:04.161Z,99.99
2017-04-16T05:05:04.148Z,99.99
2017-04-16T05:06:03.823Z,99.99
2017-04-16T05:07:04.086Z,99.99
2017-04-16T05:08:03.864Z,99.99
2017-04-16T05:09:03.743Z,99.99
2017-04-16T05:10:04.035Z,99.99
2017-04-16T05:11:04.005Z,99.99
2017-04-16T05:12:03.997Z,99.99
2017-04-16T05:13:03.966Z,99.99
2017-04-16T05:14:03.632Z,99.99
2017-04-16T05:15:03.914Z,99.99
2017-04-16T05:16:03.581Z,99.99
2017-04-16T05:17:03.572Z,99.99
2017-04-16T05:18:03.853Z,99.99
2017-04-16T05:19:03.823Z,99.99
2017-04-16T05:20:03.801Z,99.99
2017-04-16T05:21:03.470Z,99.99
2017-04-16T05:22:03.451Z,99.99
2017-04-16T05:23:03.729Z,99.99
2017-04-16T05:24:03.713Z,99.99
2017-04-16T05:25:03.691Z,99.99
2017-04-16T05:26:03.673Z,99.99
2017-04-16T05:27:03.334Z,99.99
2017-04-16T05:28:03.314Z,99.99
2017-04-16T05:29:03.605Z,99.99
2017-04-16T05:30:03.572Z,99.99
2017-04-16T05:31:03.252Z,99.99
2017-04-16T05:32:03.531Z,99.99
2017-04-16T05:33:03.511Z,99.99
2017-04-16T05:34:03.185Z,99.99
2017-04-16T05:35:03.252Z,99.99
2017-04-16T05:36:03.452Z,99.99
2017-04-16T05:37:03.424Z,99.99
2017-04-16T05:38:03.097Z,99.99
2017-04-16T05:39:03.393Z,99.99
2017-04-16T05:40:03.039Z,99.99
2017-04-16T05:41:03.325Z,99.99
2017-04-16T05:42:03.000Z,99.99
2017-04-16T05:43:03.293Z,99.99
2017-04-16T05:44:03.263Z,99.99
2017-04-16T05:45:03.251Z,99.99
2017-04-16T05:46:03.367Z,99.99
2017-04-16T05:47:02.890Z,99.99
2017-04-16T05:48:02.872Z,99.99
2017-04-16T05:49:02.844Z,99.99
2017-04-16T05:50:03.141Z,99.99
2017-04-16T05:51:03.125Z,99.99
2017-04-16T05:52:03.094Z,99.99
2017-04-16T05:53:03.061Z,99.99
2017-04-16T05:54:03.244Z,99.99
2017-04-16T05:55:02.762Z,99.99
2017-04-16T05:56:02.691Z,99.99
2017-04-16T05:57:02.984Z,99.99
2017-04-16T05:58:02.953Z,99.99
2017-04-16T05:59:02.982Z,99.99
2017-04-16T06:00:02.604Z,99.99
2017-04-16T06:01:02.894Z,99.99
2017-04-16T06:02:02.872Z,99.99
2017-04-16T06:03:02.882Z,99.99
2017-04-16T06:04:02.825Z,99.99
2017-04-16T06:05:02.663Z,99.99
2017-04-16T06:06:02.802Z,99.99
2017-04-16T06:07:02.817Z,99.99
2017-04-16T06:08:02.743Z,99.99
2017-04-16T06:09:02.762Z,99.99
2017-04-16T06:10:02.790Z,99.99
2017-04-16T06:11:02.682Z,99.99
2017-04-16T06:12:02.655Z,99.99
2017-04-16T06:13:02.671Z,99.99
2017-04-16T06:14:02.689Z,99.99
2017-04-16T06:15:02.582Z,99.99
2017-04-16T06:16:02.656Z,99.99
2017-04-16T06:17:02.545Z,99.99
2017-04-16T06:18:02.526Z,99.99
2017-04-16T06:19:02.526Z,99.99
2017-04-16T06:20:02.171Z,99.99
2017-04-16T06:21:02.501Z,99.99
2017-04-16T06:22:02.454Z,99.99
2017-04-16T06:23:02.471Z,99.99
2017-04-16T06:24:02.090Z,99.99
2017-04-16T06:25:02.443Z,99.99
2017-04-16T06:26:02.370Z,99.99
2017-04-16T06:27:02.548Z,99.99
2017-04-16T06:28:02.362Z,99.99
2017-04-16T06:29:02.072Z,99.99
2017-04-16T06:30:02.306Z,99.99
2017-04-16T06:31:02.243Z,99.99
2017-04-16T06:32:02.297Z,99.99
2017-04-16T06:33:01.947Z,99.99
2017-04-16T06:34:02.186Z,99.99
2017-04-16T06:35:02.202Z,99.99
2017-04-16T06:36:02.203Z,99.99
2017-04-16T06:37:02.117Z,99.99
2017-04-16T06:38:02.143Z,99.99
2017-04-16T06:39:01.767Z,99.99
2017-04-16T06:40:02.056Z,99.99
2017-04-16T06:41:02.037Z,99.99
2017-04-16T06:42:01.715Z,99.99
2017-04-16T06:43:01.702Z,99.99
2017-04-16T06:44:01.662Z,99.99
2017-04-16T06:45:01.645Z,99.99
2017-04-16T06:46:01.936Z,99.99
2017-04-16T06:47:01.912Z,99.99
2017-04-16T06:48:01.896Z,99.99
2017-04-16T06:49:01.872Z,99.99
2017-04-16T06:50:01.902Z,99.99
2017-04-16T06:51:01.839Z,99.99
2017-04-16T06:52:01.501Z,99.7
2017-04-16T06:53:01.487Z,99.66
2017-04-16T06:54:01.844Z,98.42
2017-04-16T06:55:01.442Z,96.84
2017-04-16T06:56:01.432Z,96.08
2017-04-16T06:57:01.416Z,95.27
2017-04-16T06:58:01.751Z,93.07
2017-04-16T06:59:01.392Z,91.25
2017-04-16T07:00:01.472Z,88.43
2017-04-16T07:01:01.346Z,87.29
2017-04-16T07:02:01.334Z,87.33
2017-04-16T07:03:01.618Z,87.33
2017-04-16T07:04:01.319Z,85.8
2017-04-16T07:05:01.595Z,85.71
2017-04-16T07:06:01.577Z,85.65
2017-04-16T07:07:01.251Z,86.47
2017-04-16T07:08:01.552Z,85.8
2017-04-16T07:09:01.538Z,85.61
2017-04-16T07:10:01.521Z,85.8
2017-04-16T07:11:01.195Z,86.57
2017-04-16T07:12:01.493Z,86.37
2017-04-16T07:13:01.472Z,85.65
2017-04-16T07:14:01.152Z,84.5
2017-04-16T07:15:01.131Z,83.97
2017-04-16T07:16:01.424Z,83.2
2017-04-16T07:17:01.409Z,83.05
2017-04-16T07:18:01.095Z,82.19
2017-04-16T07:19:01.415Z,81.62
2017-04-16T07:20:01.373Z,81.81
2017-04-16T07:21:01.357Z,83.2
2017-04-16T07:22:01.035Z,83.39
2017-04-16T07:23:01.019Z,82.82
2017-04-16T07:24:01.312Z,82.09
2017-04-16T07:25:01.315Z,81.75
2017-04-16T07:26:01.293Z,81.52
2017-04-16T07:27:00.964Z,81.81
2017-04-16T07:28:01.257Z,81.13
2017-04-16T07:29:00.944Z,80.18
2017-04-16T07:30:01.243Z,79.64
2017-04-16T07:31:01.227Z,80.32
2017-04-16T07:32:01.202Z,81.96
2017-04-16T07:33:01.195Z,82.97
2017-04-16T07:34:01.212Z,83.79
2017-04-16T07:35:01.167Z,83.45
2017-04-16T07:36:01.154Z,82.87
2017-04-16T07:37:01.145Z,83.2
2017-04-16T07:38:01.131Z,81.43
2017-04-16T07:39:01.124Z,80.76
2017-04-16T07:40:01.112Z,81.13
2017-04-16T07:41:01.101Z,81.29
2017-04-16T07:42:01.091Z,82.2
2017-04-16T07:43:01.066Z,82.11
2017-04-16T07:44:01.053Z,83.12
2017-04-16T07:45:00.742Z,83.6
2017-04-16T07:46:00.721Z,83.4
2017-04-16T07:47:01.012Z,83.65
2017-04-16T07:48:00.702Z,85.09
2017-04-16T07:49:01.006Z,85.57
2017-04-16T07:50:00.671Z,86.61
2017-04-16T07:51:00.956Z,86.96
2017-04-16T07:52:00.936Z,87.53
2017-04-16T07:53:00.927Z,86.96
2017-04-16T07:54:00.913Z,87.01
2017-04-16T07:55:00.903Z,88.15
2017-04-16T07:56:00.883Z,88.44
2017-04-16T07:57:00.863Z,89.64
2017-04-16T07:58:00.851Z,90.54
2017-04-16T07:59:01.056Z,90.21
2017-04-16T08:00:00.617Z,89.68
2017-04-16T08:01:00.832Z,89.49
2017-04-16T08:02:00.782Z,88.54
2017-04-16T08:03:00.462Z,88.54
2017-04-16T08:04:00.752Z,88.63
2017-04-16T08:05:00.732Z,88.58
2017-04-16T08:06:00.468Z,87.53
2017-04-16T08:07:00.708Z,87.24
2017-04-16T08:08:00.691Z,87.05
2017-04-16T08:09:00.381Z,86.1
2017-04-16T08:10:00.358Z,85.57
2017-04-16T08:11:00.332Z,84.99
2017-04-16T08:12:00.333Z,84.99
2017-04-16T08:13:00.320Z,84.75
2017-04-16T08:14:00.598Z,84.17
2017-04-16T08:15:00.625Z,83.64
2017-04-16T08:16:00.582Z,82.87
2017-04-16T08:17:00.259Z,82.43
2017-04-16T08:18:00.671Z,81.77
2017-04-16T08:19:00.233Z,81.33
2017-04-16T08:20:00.522Z,80.27
2017-04-16T08:21:00.501Z,79.93
2017-04-16T08:22:00.185Z,79.64
2017-04-16T08:23:00.473Z,79.26
2017-04-16T08:24:00.475Z,79.8
2017-04-16T08:25:00.152Z,79.89
2017-04-16T08:26:00.540Z,79.51
2017-04-16T08:27:00.433Z,80.43
2017-04-16T08:28:00.521Z,80.24
2017-04-16T08:29:00.411Z,79.47
2017-04-16T08:30:00.192Z,78.84
2017-04-16T08:31:00.378Z,77.4
2017-04-16T08:32:00.422Z,77.11
2017-04-16T08:33:00.362Z,77.21
2017-04-16T08:34:00.342Z,77.4
2017-04-16T08:35:00.330Z,77.36
2017-04-16T08:36:00.318Z,78.13
2017-04-16T08:37:00.357Z,78.7
2017-04-16T08:38:00.348Z,78.89
2017-04-16T08:38:59.972Z,78.89
2017-04-16T08:40:00.317Z,79.18
2017-04-16T08:41:00.364Z,79.28
2017-04-16T08:42:00.237Z,78.99
2017-04-16T08:42:59.916Z,79.05
2017-04-16T08:44:00.232Z,78.57
2017-04-16T08:45:00.205Z,78.66
2017-04-16T08:46:00.187Z,78.51
2017-04-16T08:47:00.196Z,78.8
2017-04-16T08:48:00.161Z,78.22
2017-04-16T08:49:00.164Z,78.36
2017-04-16T08:50:00.133Z,77.44
2017-04-16T08:51:00.142Z,76.42
2017-04-16T08:52:00.113Z,74.06
2017-04-16T08:53:00.197Z,73.3
2017-04-16T08:54:00.094Z,71.8
2017-04-16T08:55:00.145Z,70.93
2017-04-16T08:55:59.892Z,70.1
2017-04-16T08:57:00.097Z,69.34
2017-04-16T08:58:00.067Z,68.66
2017-04-16T08:59:00.042Z,68.76
2017-04-16T08:59:59.732Z,69.87
2017-04-16T09:01:00.014Z,69.87
2017-04-16T09:02:00.002Z,69.68
2017-04-16T09:02:59.711Z,69.2
2017-04-16T09:03:59.991Z,69.53
2017-04-16T09:04:59.681Z,69.24
2017-04-16T09:05:59.970Z,69.34
2017-04-16T09:06:59.964Z,68.31
2017-04-16T09:07:59.954Z,67.51
2017-04-16T09:08:59.953Z,67.9
2017-04-16T09:09:59.631Z,67.96
2017-04-16T09:10:59.932Z,69.3
2017-04-16T09:11:59.915Z,70.13
2017-04-16T09:12:59.927Z,70.7
2017-04-16T09:13:59.889Z,70.8
2017-04-16T09:14:59.877Z,70.42
2017-04-16T09:15:59.884Z,70.42
2017-04-16T09:16:59.562Z,71.34
2017-04-16T09:17:59.847Z,71.92
2017-04-16T09:18:59.853Z,71.95
2017-04-16T09:19:59.833Z,71.19
2017-04-16T09:20:59.832Z,70.45
2017-04-16T09:22:00.023Z,69.05
2017-04-16T09:22:59.802Z,67.35
2017-04-16T09:23:59.786Z,67.32
2017-04-16T09:24:59.783Z,68.05
2017-04-16T09:25:59.778Z,67.19
2017-04-16T09:26:59.784Z,67.92
2017-04-16T09:27:59.743Z,68.02
2017-04-16T09:28:59.743Z,68.85
2017-04-16T09:29:59.426Z,68.37
2017-04-16T09:30:59.724Z,68.02
2017-04-16T09:31:59.703Z,67.29
2017-04-16T09:32:59.694Z,67.16
2017-04-16T09:33:59.682Z,67.16
2017-04-16T09:34:59.682Z,67.19
2017-04-16T09:35:59.672Z,67.13
2017-04-16T09:36:59.660Z,66.74
2017-04-16T09:37:59.665Z,65.91
2017-04-16T09:38:59.653Z,65.14
2017-04-16T09:39:59.626Z,65.53
2017-04-16T09:40:59.613Z,65.59
2017-04-16T09:41:59.303Z,65.97
2017-04-16T09:42:59.290Z,66
2017-04-16T09:43:59.284Z,66.42
2017-04-16T09:44:59.585Z,66.23
2017-04-16T09:45:59.266Z,63.95
2017-04-16T09:46:59.252Z,64.53
2017-04-16T09:47:59.567Z,63.67
2017-04-16T09:48:59.543Z,63.09
2017-04-16T09:49:59.533Z,63.35
2017-04-16T09:50:59.542Z,64.09
2017-04-16T09:51:59.514Z,63.7
2017-04-16T09:52:59.212Z,63.22
2017-04-16T09:53:59.502Z,63.02
2017-04-16T09:54:59.190Z,63.79
2017-04-16T09:55:59.173Z,64.47
2017-04-16T09:56:59.492Z,64.82
2017-04-16T09:57:59.155Z,66.33
2017-04-16T09:58:59.462Z,66.23
2017-04-16T09:59:59.442Z,65.78
2017-04-16T10:00:59.442Z,65.97
2017-04-16T10:01:59.115Z,66.16
2017-04-16T10:02:59.403Z,66.42
2017-04-16T10:03:59.401Z,66.13
2017-04-16T10:04:59.383Z,67.29
2017-04-16T10:05:59.375Z,67.19
2017-04-16T10:06:59.053Z,66.26
2017-04-16T10:07:59.354Z,65.78
2017-04-16T10:08:59.030Z,65.11
2017-04-16T10:09:59.017Z,64.76
2017-04-16T10:10:59.316Z,64.66
2017-04-16T10:11:59.310Z,65.05
2017-04-16T10:12:59.279Z,65.05
2017-04-16T10:13:59.274Z,65.01
2017-04-16T10:14:59.271Z,65.11
2017-04-16T10:15:59.253Z,66.52
2017-04-16T10:16:59.240Z,66.96
2017-04-16T10:17:59.262Z,67.63
2017-04-16T10:18:59.219Z,67.73
2017-04-16T10:19:59.220Z,67.5
2017-04-16T10:20:59.182Z,67.35
2017-04-16T10:21:59.216Z,66.86
2017-04-16T10:22:59.165Z,66.96
2017-04-16T10:23:59.266Z,66.71
2017-04-16T10:24:58.832Z,65.84
2017-04-16T10:25:59.134Z,64.92
2017-04-16T10:26:59.126Z,66.03
2017-04-16T10:27:58.885Z,66.45
2017-04-16T10:28:59.083Z,67.02
2017-04-16T10:29:59.123Z,66.55
2017-04-16T10:30:59.064Z,67.12
2017-04-16T10:31:58.837Z,66.49
2017-04-16T10:32:59.030Z,65.81
2017-04-16T10:33:58.714Z,65.94
2017-04-16T10:34:58.997Z,65.75
2017-04-16T10:35:58.764Z,64.72
2017-04-16T10:36:59.036Z,63.67
2017-04-16T10:37:58.682Z,63.51
2017-04-16T10:38:58.939Z,64.53
2017-04-16T10:39:59.084Z,64.63
2017-04-16T10:40:59.013Z,63.7
2017-04-16T10:41:58.601Z,63.15
2017-04-16T10:42:58.588Z,61.81
2017-04-16T10:43:58.934Z,60.85
2017-04-16T10:44:58.917Z,60.75
2017-04-16T10:45:58.863Z,61.61
2017-04-16T10:46:58.896Z,61.4
2017-04-16T10:47:58.828Z,62.35
2017-04-16T10:48:58.834Z,62.23
2017-04-16T10:49:58.548Z,62.04
2017-04-16T10:50:58.477Z,62.87
2017-04-16T10:51:58.463Z,63.51
2017-04-16T10:52:58.860Z,64.95
2017-04-16T10:53:58.433Z,64.47
2017-04-16T10:54:58.732Z,63.89
2017-04-16T10:55:58.732Z,63.89
2017-04-16T10:56:58.392Z,64.02
2017-04-16T10:57:58.694Z,63.57
2017-04-16T10:58:58.367Z,63.09
2017-04-16T10:59:58.712Z,62.9
2017-04-16T11:00:58.652Z,61.87
2017-04-16T11:01:58.324Z,61.58
2017-04-16T11:02:58.633Z,61.58
2017-04-16T11:03:58.624Z,61.43
2017-04-16T11:04:58.594Z,60.85
2017-04-16T11:05:58.583Z,61.2
2017-04-16T11:06:58.260Z,60.34
2017-04-16T11:07:58.556Z,60.69
2017-04-16T11:08:58.234Z,60.6
2017-04-16T11:09:58.571Z,60.4
2017-04-16T11:10:58.515Z,60.21
2017-04-16T11:11:58.204Z,59.47
2017-04-16T11:12:58.513Z,60.14
2017-04-16T11:13:58.472Z,59.41
2017-04-16T11:14:58.175Z,60.17
2017-04-16T11:15:58.151Z,60.14
2017-04-16T11:16:58.428Z,61.04
2017-04-16T11:17:58.417Z,60.21
2017-04-16T11:18:58.404Z,59.63
2017-04-16T11:19:58.082Z,58.09
2017-04-16T11:20:58.072Z,57.7
2017-04-16T11:21:58.055Z,57.68
2017-04-16T11:22:58.374Z,57.29
2017-04-16T11:23:58.343Z,57
2017-04-16T11:24:58.333Z,56.14
2017-04-16T11:25:58.342Z,57.07
2017-04-16T11:26:58.301Z,57.9
2017-04-16T11:27:58.003Z,59.34
2017-04-16T11:28:57.970Z,59.61
2017-04-16T11:29:58.271Z,60.35
2017-04-16T11:30:57.938Z,61.3
2017-04-16T11:31:57.930Z,60.63
2017-04-16T11:32:58.214Z,60.82
2017-04-16T11:33:57.903Z,61.18
2017-04-16T11:34:58.192Z,62.59
2017-04-16T11:35:58.175Z,63.45
2017-04-16T11:36:58.158Z,63.67
2017-04-16T11:37:58.150Z,64.34
2017-04-16T11:38:58.134Z,63.86
2017-04-16T11:39:57.817Z,63.86
2017-04-16T11:40:58.095Z,64.63
2017-04-16T11:41:57.776Z,64.53
2017-04-16T11:42:58.074Z,65.39
2017-04-16T11:43:58.054Z,64.92
2017-04-16T11:44:58.053Z,64.43
2017-04-16T11:45:57.712Z,64.72
2017-04-16T11:46:58.023Z,64.72
2017-04-16T11:47:58.004Z,63.76
2017-04-16T11:48:57.985Z,63.96
2017-04-16T11:49:58.228Z,63.12
2017-04-16T11:50:57.952Z,61.98
2017-04-16T11:51:57.933Z,60.92
2017-04-16T11:52:57.612Z,61.3
2017-04-16T11:53:57.592Z,61.49
2017-04-16T11:54:57.882Z,60.95
2017-04-16T11:55:57.872Z,60.21
2017-04-16T11:56:57.867Z,58.42
2017-04-16T11:57:57.848Z,58.42
2017-04-16T11:58:57.835Z,57.84
2017-04-16T11:59:57.818Z,57.55
2017-04-16T12:00:57.808Z,57.33
2017-04-16T12:01:57.794Z,57.71
2017-04-16T12:02:57.793Z,58.39
2017-04-16T12:03:57.462Z,58.51
2017-04-16T12:04:57.766Z,59.34
2017-04-16T12:05:57.747Z,59.57
2017-04-16T12:06:57.862Z,59.31
2017-04-16T12:07:57.714Z,59.34
2017-04-16T12:08:57.716Z,57.42
2017-04-16T12:09:57.694Z,55.9
2017-04-16T12:10:57.365Z,55.33
2017-04-16T12:11:57.350Z,55.68
2017-04-16T12:12:57.646Z,56.91
2017-04-16T12:13:57.636Z,57.65
2017-04-16T12:14:57.613Z,58.87
2017-04-16T12:15:57.612Z,59.34
2017-04-16T12:16:57.604Z,59.44
2017-04-16T12:17:57.585Z,59.22
2017-04-16T12:18:57.559Z,59.77
2017-04-16T12:19:57.550Z,60.08
2017-04-16T12:20:57.533Z,59.03
2017-04-16T12:21:57.517Z,58.36
2017-04-16T12:22:57.254Z,58.74
2017-04-16T12:23:57.502Z,58.64
2017-04-16T12:24:57.484Z,58.45
2017-04-16T12:25:57.462Z,58.71
2017-04-16T12:26:57.442Z,58.91
2017-04-16T12:27:57.434Z,60.12
2017-04-16T12:28:57.431Z,59.64
2017-04-16T12:29:57.412Z,59.36
2017-04-16T12:30:57.384Z,59.36
2017-04-16T12:31:57.383Z,59.64
2017-04-16T12:32:57.370Z,60.38
2017-04-16T12:33:57.343Z,61.15
2017-04-16T12:34:57.341Z,61.05
2017-04-16T12:35:57.314Z,61.24
2017-04-16T12:36:57.293Z,61.82
2017-04-16T12:37:57.283Z,61.34
2017-04-16T12:38:57.266Z,61.72
2017-04-16T12:39:57.251Z,61.24
2017-04-16T12:40:56.926Z,61.69
2017-04-16T12:41:56.911Z,61.88
2017-04-16T12:42:56.894Z,62.65
2017-04-16T12:43:56.890Z,62.74
2017-04-16T12:44:57.162Z,62.84
2017-04-16T12:45:57.149Z,63.03
2017-04-16T12:46:57.144Z,62.84
2017-04-16T12:47:57.150Z,62.84
2017-04-16T12:48:57.102Z,63.29
2017-04-16T12:49:57.091Z,63.19
2017-04-16T12:50:57.074Z,63.48
2017-04-16T12:51:57.057Z,63.57
2017-04-16T12:52:57.057Z,65.01
2017-04-16T12:53:57.023Z,65.01